createdAt,value
2018-10-19T00:01:43.228Z,47.80
2018-10-19T00:04:11.315Z,47.33
2018-10-19T00:06:39.399Z,49.00
2018-10-19T00:09:08.354Z,50.83
2018-10-19T00:11:36.527Z,48.57
2018-10-19T00:14:05.023Z,52.90
2018-10-19T00:16:33.115Z,56.90
2018-10-19T00:19:01.198Z,53.60
2018-10-19T00:21:29.278Z,53.87
2018-10-19T00:23:57.368Z,52.80
2018-10-19T00:26:25.562Z,53.90
2018-10-19T00:28:53.690Z,54.40
2018-10-19T00:31:21.778Z,53.10
2018-10-19T00:33:49.862Z,56.00
2018-10-19T00:36:17.943Z,52.93
2018-10-19T00:38:46.046Z,66.97
2018-10-19T00:41:14.255Z,57.13
2018-10-19T00:43:42.237Z,61.50
2018-10-19T00:46:10.334Z,57.53
2018-10-19T00:48:38.434Z,57.33
2018-10-19T00:51:06.595Z,56.63
2018-10-19T00:53:34.627Z,57.57
2018-10-19T00:56:02.704Z,62.20
2018-10-19T00:58:30.804Z,57.23
2018-10-19T01:00:58.874Z,61.03
2018-10-19T01:03:26.971Z,58.80
2018-10-19T01:05:55.050Z,57.47
2018-10-19T01:08:23.132Z,61.70
2018-10-19T01:10:51.202Z,59.53
2018-10-19T01:13:19.283Z,61.03
2018-10-19T01:15:47.351Z,60.17
2018-10-19T01:18:15.421Z,62.10
2018-10-19T01:20:43.498Z,64.37
2018-10-19T01:23:11.674Z,63.00
2018-10-19T01:25:41.155Z,65.53
2018-10-19T01:28:09.931Z,68.67
2018-10-19T01:30:38.022Z,66.60
2018-10-19T01:33:06.136Z,66.17
2018-10-19T01:35:34.174Z,65.43
2018-10-19T01:38:02.252Z,68.83
2018-10-19T01:40:30.322Z,69.00
2018-10-19T01:42:58.390Z,68.13
2018-10-19T01:45:28.589Z,71.80
2018-10-19T01:47:56.998Z,71.37
2018-10-19T01:50:25.103Z,69.93
2018-10-19T01:52:53.213Z,69.23
2018-10-19T01:55:21.311Z,71.10
2018-10-19T01:57:49.379Z,67.27
2018-10-19T02:00:17.467Z,76.60
2018-10-19T02:02:45.551Z,74.93
2018-10-19T02:05:13.648Z,79.90
2018-10-19T02:07:41.686Z,78.90
2018-10-19T02:10:09.759Z,77.57
2018-10-19T02:12:37.835Z,80.07
2018-10-19T02:15:06.989Z,77.33
2018-10-19T02:17:35.023Z,80.93
2018-10-19T02:20:03.087Z,82.03
2018-10-19T02:22:31.174Z,78.83
2018-10-19T02:24:59.311Z,77.97
2018-10-19T02:27:27.395Z,85.90
2018-10-19T02:29:55.476Z,82.90
2018-10-19T02:32:23.554Z,84.57
2018-10-19T02:34:51.634Z,84.83
2018-10-19T02:37:19.737Z,85.60
2018-10-19T02:39:47.843Z,88.43
2018-10-19T02:42:15.927Z,80.67
2018-10-19T02:44:44.010Z,90.77
2018-10-19T02:47:12.127Z,90.60
2018-10-19T02:49:40.197Z,90.30
2018-10-19T02:52:08.283Z,87.60
2018-10-19T02:54:36.367Z,88.70
2018-10-19T02:57:04.512Z,88.20
2018-10-19T02:59:32.556Z,88.80
2018-10-19T03:02:00.656Z,87.23
2018-10-19T03:04:28.770Z,87.73
2018-10-19T03:06:56.875Z,93.67
2018-10-19T03:09:24.943Z,89.07
2018-10-19T03:11:53.036Z,85.80
2018-10-19T03:14:21.131Z,88.23
2018-10-19T03:16:49.215Z,86.33
2018-10-19T03:19:17.285Z,90.10
2018-10-19T03:21:45.388Z,93.87
2018-10-19T03:24:13.462Z,87.77
2018-10-19T03:26:41.530Z,95.33
2018-10-19T03:29:09.674Z,84.67
2018-10-19T03:31:37.729Z,88.77
2018-10-19T03:34:05.974Z,87.40
2018-10-19T03:36:34.067Z,94.13
2018-10-19T03:39:02.402Z,96.43
2018-10-19T03:41:30.472Z,92.90
2018-10-19T03:43:58.598Z,85.87
2018-10-19T03:46:26.673Z,95.10
2018-10-19T03:48:54.774Z,89.70
2018-10-19T03:51:22.856Z,93.03
2018-10-19T03:53:50.992Z,89.70
2018-10-19T03:56:19.071Z,82.27
2018-10-19T03:58:47.166Z,88.37
2018-10-19T04:01:15.251Z,82.93
2018-10-19T04:03:43.410Z,84.43
2018-10-19T04:06:11.423Z,83.30
2018-10-19T04:08:39.510Z,92.27
2018-10-19T04:11:07.795Z,83.70
2018-10-19T04:13:35.895Z,81.40
2018-10-19T04:16:03.954Z,86.07
2018-10-19T04:18:32.039Z,87.77
2018-10-19T04:21:00.134Z,92.80
2018-10-19T04:23:28.174Z,91.03
2018-10-19T04:25:56.252Z,93.63
2018-10-19T04:28:24.359Z,92.37
2018-10-19T04:30:52.451Z,92.77
2018-10-19T04:33:20.574Z,97.23
2018-10-19T04:35:48.661Z,96.27
2018-10-19T04:38:16.739Z,102.13
2018-10-19T04:40:44.816Z,96.43
2018-10-19T04:43:12.897Z,93.63
2018-10-19T04:45:40.972Z,87.73
2018-10-19T04:48:09.058Z,86.53
2018-10-19T04:50:37.134Z,88.50
2018-10-19T04:53:05.271Z,91.40
2018-10-19T04:55:33.359Z,92.67
2018-10-19T04:58:01.444Z,95.17
2018-10-19T05:00:29.523Z,97.13
2018-10-19T05:02:57.643Z,105.90
2018-10-19T05:05:25.839Z,130.33
2018-10-19T05:07:53.836Z,124.87
2018-10-19T05:10:21.867Z,104.33
2018-10-19T05:12:49.943Z,99.83
2018-10-19T05:15:18.002Z,109.37
2018-10-19T05:17:46.090Z,111.83
2018-10-19T05:20:14.244Z,104.67
2018-10-19T05:22:42.267Z,102.93
2018-10-19T05:25:11.582Z,87.57
2018-10-19T05:27:39.655Z,86.10
2018-10-19T05:30:09.569Z,94.40
2018-10-19T05:32:37.736Z,103.90
2018-10-19T05:35:06.730Z,92.37
2018-10-19T05:37:34.923Z,76.87
2018-10-19T05:40:03.000Z,68.97
2018-10-19T05:42:31.259Z,68.50
2018-10-19T05:44:59.327Z,71.03
2018-10-19T05:47:27.399Z,69.10
2018-10-19T05:49:55.536Z,59.33
2018-10-19T05:52:23.616Z,55.07
2018-10-19T05:54:51.782Z,51.47
2018-10-19T05:57:19.862Z,58.13
2018-10-19T05:59:48.031Z,59.63
2018-10-19T06:02:16.192Z,73.07
2018-10-19T06:04:44.155Z,61.50
2018-10-19T06:07:12.227Z,66.80
2018-10-19T06:09:40.299Z,68.80
2018-10-19T06:12:08.379Z,78.37
2018-10-19T06:14:36.461Z,81.70
2018-10-19T06:17:04.969Z,83.07
2018-10-19T06:19:33.003Z,80.33
2018-10-19T06:22:01.067Z,90.73
2018-10-19T06:24:29.141Z,83.47
2018-10-19T06:26:57.218Z,73.57
2018-10-19T06:29:25.295Z,69.17
2018-10-19T06:31:53.383Z,73.23
2018-10-19T06:34:21.427Z,73.73
2018-10-19T06:36:49.491Z,73.53
2018-10-19T06:39:17.550Z,73.07
2018-10-19T06:41:45.632Z,65.53
2018-10-19T06:44:13.770Z,64.93
2018-10-19T06:46:41.824Z,72.33
2018-10-19T06:49:09.883Z,62.63
2018-10-19T06:51:37.900Z,55.00
2018-10-19T06:54:05.986Z,52.10
2018-10-19T06:56:34.079Z,50.17
2018-10-19T06:59:02.231Z,47.37
2018-10-19T07:01:30.222Z,47.43
2018-10-19T07:03:58.294Z,52.03
2018-10-19T07:06:26.366Z,46.30
2018-10-19T07:08:54.438Z,47.07
2018-10-19T07:11:22.634Z,48.67
2018-10-19T07:13:50.711Z,49.50
2018-10-19T07:16:18.791Z,48.93
2018-10-19T07:18:46.888Z,49.63
2018-10-19T07:21:14.934Z,48.10
2018-10-19T07:23:43.010Z,54.87
2018-10-19T07:26:11.142Z,57.17
2018-10-19T07:28:39.163Z,59.50
2018-10-19T07:31:07.234Z,66.67
2018-10-19T07:33:35.315Z,63.50
2018-10-19T07:36:03.402Z,63.03
2018-10-19T07:38:31.487Z,60.67
2018-10-19T07:40:59.574Z,61.67
2018-10-19T07:43:27.643Z,67.00
2018-10-19T07:45:55.701Z,72.47
2018-10-19T07:48:23.836Z,76.10
2018-10-19T07:50:51.873Z,87.60
2018-10-19T07:53:19.955Z,91.83
2018-10-19T07:55:48.027Z,82.70
2018-10-19T07:58:16.094Z,82.07
2018-10-19T08:00:44.161Z,82.67
2018-10-19T08:03:12.238Z,83.80
2018-10-19T08:05:40.303Z,85.67
2018-10-19T08:08:08.559Z,91.37
2018-10-19T08:10:36.606Z,87.63
2018-10-19T08:13:04.930Z,90.10
2018-10-19T08:15:33.019Z,88.40
2018-10-19T08:18:01.099Z,98.60
2018-10-19T08:20:29.170Z,95.43
2018-10-19T08:22:57.293Z,86.03
2018-10-19T08:25:25.323Z,82.03
2018-10-19T08:27:53.413Z,85.13
2018-10-19T08:30:21.482Z,82.60
2018-10-19T08:32:49.615Z,78.73
2018-10-19T08:35:17.675Z,84.30
2018-10-19T08:37:45.751Z,80.33
2018-10-19T08:40:13.831Z,80.03
2018-10-19T08:42:41.899Z,73.77
2018-10-19T08:45:09.980Z,79.80
2018-10-19T08:47:38.068Z,81.77
2018-10-19T08:50:06.602Z,86.13
2018-10-19T08:52:34.719Z,83.80
2018-10-19T08:55:02.818Z,79.80
2018-10-19T08:57:30.858Z,84.73
2018-10-19T08:59:58.967Z,78.93
2018-10-19T09:02:27.006Z,77.00
2018-10-19T09:04:55.081Z,73.97
2018-10-19T09:07:23.152Z,83.70
2018-10-19T09:09:51.214Z,82.57
2018-10-19T09:12:19.300Z,76.37
2018-10-19T09:14:50.667Z,76.00
2018-10-19T09:17:18.787Z,71.77
2018-10-19T09:19:47.526Z,76.73
2018-10-19T09:22:15.602Z,90.60
2018-10-19T09:24:43.672Z,79.37
2018-10-19T09:27:11.813Z,76.57
2018-10-19T09:29:39.967Z,69.03
2018-10-19T09:32:07.882Z,75.30
2018-10-19T09:34:36.575Z,74.07
2018-10-19T09:37:05.465Z,74.83
2018-10-19T09:39:33.479Z,75.73
2018-10-19T09:42:01.604Z,68.97
2018-10-19T09:44:29.638Z,72.13
2018-10-19T09:46:57.718Z,70.13
2018-10-19T09:49:25.787Z,68.73
2018-10-19T09:51:53.853Z,73.80
2018-10-19T09:54:21.924Z,71.23
2018-10-19T09:56:49.995Z,73.00
2018-10-19T09:59:18.158Z,68.70
2018-10-19T10:01:46.138Z,71.40
2018-10-19T10:04:14.215Z,66.77
2018-10-19T10:06:42.279Z,70.67
2018-10-19T10:09:12.367Z,67.23
2018-10-19T10:11:40.619Z,68.27
2018-10-19T10:14:08.895Z,65.00
2018-10-19T10:16:37.179Z,64.00
2018-10-19T10:19:05.503Z,66.87
2018-10-19T10:21:33.566Z,66.93
2018-10-19T10:24:01.646Z,64.53
2018-10-19T10:26:29.866Z,61.57
2018-10-19T10:28:57.942Z,63.20
2018-10-19T10:31:26.020Z,64.43
2018-10-19T10:33:54.152Z,61.30
2018-10-19T10:36:22.158Z,65.10
2018-10-19T10:38:50.248Z,69.43
2018-10-19T10:41:18.304Z,63.70
2018-10-19T10:43:46.403Z,65.97
2018-10-19T10:46:14.578Z,67.50
2018-10-19T10:48:42.534Z,64.97
2018-10-19T10:51:10.632Z,63.60
2018-10-19T10:53:38.699Z,64.07
2018-10-19T10:56:06.794Z,62.37
2018-10-19T10:58:34.854Z,63.03
2018-10-19T11:01:02.937Z,57.30
2018-10-19T11:03:31.004Z,54.63
2018-10-19T11:05:59.081Z,54.90
2018-10-19T11:08:27.161Z,55.67
2018-10-19T11:11:14.229Z,55.37
2018-10-19T11:13:43.003Z,54.97
2018-10-19T11:16:12.173Z,55.70
2018-10-19T11:18:40.480Z,53.40
2018-10-19T11:21:08.752Z,54.07
2018-10-19T11:23:36.840Z,56.20
2018-10-19T11:26:05.414Z,56.17
2018-10-19T11:28:33.486Z,57.27
2018-10-19T11:31:02.094Z,54.00
2018-10-19T11:33:30.130Z,53.83
2018-10-19T11:35:58.204Z,57.10
2018-10-19T11:38:26.274Z,52.83
2018-10-19T11:40:54.352Z,54.20
2018-10-19T11:43:22.423Z,54.03
2018-10-19T11:45:50.495Z,56.60
2018-10-19T11:48:18.566Z,53.27
2018-10-19T11:50:46.642Z,54.17
2018-10-19T11:53:14.714Z,55.30
2018-10-19T11:55:42.791Z,55.25
2018-10-19T11:58:10.906Z,50.77
2018-10-19T12:00:38.939Z,52.57
2018-10-19T12:03:07.007Z,53.13
2018-10-19T12:05:35.086Z,53.87
2018-10-19T12:08:03.155Z,52.55
2018-10-19T12:10:31.246Z,52.80
2018-10-19T12:12:59.363Z,50.55
2018-10-19T12:15:27.379Z,51.58
2018-10-19T12:17:55.450Z,49.20
2018-10-19T12:20:23.510Z,50.78
2018-10-19T12:22:51.583Z,50.20
2018-10-19T12:25:19.655Z,49.03
2018-10-19T12:27:47.719Z,48.87
2018-10-19T12:30:15.791Z,50.30
2018-10-19T12:32:43.865Z,49.50
2018-10-19T12:35:13.466Z,49.60
2018-10-19T12:37:41.542Z,48.45
2018-10-19T12:40:10.442Z,49.95
2018-10-19T12:42:38.834Z,50.03
2018-10-19T12:46:17.330Z,46.10
2018-10-19T12:48:45.415Z,47.80
2018-10-19T12:51:13.544Z,47.75
2018-10-19T12:53:41.553Z,46.80
2018-10-19T12:56:09.614Z,47.30
2018-10-19T12:58:37.678Z,46.88
2018-10-19T13:01:06.115Z,47.53
2018-10-19T13:03:34.280Z,46.60
2018-10-19T13:06:02.275Z,48.40
2018-10-19T13:08:30.343Z,48.20
2018-10-19T13:10:58.418Z,50.75
2018-10-19T13:13:26.486Z,49.35
2018-10-19T13:15:54.615Z,49.13
2018-10-19T13:18:22.681Z,48.07
2018-10-19T13:20:50.747Z,46.42
2018-10-19T13:23:18.815Z,47.30
2018-10-19T13:25:46.883Z,48.35
2018-10-19T13:28:15.374Z,47.00
2018-10-19T13:30:43.494Z,44.63
2018-10-19T13:33:12.096Z,44.70
2018-10-19T13:35:40.358Z,47.40
2018-10-19T13:38:08.452Z,46.08
2018-10-19T13:40:36.515Z,47.17
2018-10-19T13:43:04.587Z,47.35
2018-10-19T13:45:32.842Z,49.30
2018-10-19T13:48:00.875Z,48.90
2018-10-19T13:50:28.947Z,48.87
2018-10-19T13:52:57.063Z,50.30
2018-10-19T13:55:25.607Z,49.23
2018-10-19T13:57:54.083Z,49.00
2018-10-19T14:00:22.158Z,45.37
2018-10-19T14:02:50.222Z,46.53
2018-10-19T14:05:18.534Z,50.93
2018-10-19T14:07:46.786Z,46.77
2018-10-19T14:10:14.850Z,46.50
2018-10-19T14:12:42.915Z,47.53
2018-10-19T14:15:11.778Z,48.63
2018-10-19T14:17:40.810Z,47.07
2018-10-19T14:20:10.922Z,46.43
2018-10-19T14:22:39.091Z,48.42
2018-10-19T14:25:08.524Z,47.62
2018-10-19T14:27:37.814Z,44.45
2018-10-19T14:30:07.763Z,48.33
2018-10-19T14:32:35.827Z,46.10
2018-10-19T14:35:04.037Z,47.75
2018-10-19T14:37:32.088Z,46.73
2018-10-19T14:40:00.150Z,46.85
2018-10-19T14:42:28.226Z,47.85
2018-10-19T14:44:56.330Z,43.83
2018-10-19T14:47:24.395Z,47.17
2018-10-19T14:49:52.502Z,45.78
2018-10-19T14:52:20.585Z,43.80
2018-10-19T14:54:48.642Z,43.00
2018-10-19T14:57:16.727Z,46.18
2018-10-19T14:59:44.815Z,44.58
2018-10-19T15:02:12.898Z,48.00
2018-10-19T15:04:40.971Z,45.10
2018-10-19T15:07:09.050Z,46.92
2018-10-19T15:09:37.214Z,45.50
2018-10-19T15:12:05.867Z,47.15
2018-10-19T15:14:33.871Z,46.23
2018-10-19T15:17:01.938Z,44.93
2018-10-19T15:19:30.007Z,43.27
2018-10-19T15:21:58.076Z,41.87
2018-10-19T15:24:26.167Z,44.60
2018-10-19T15:26:54.277Z,45.43
2018-10-19T15:29:22.346Z,47.90
2018-10-19T15:31:50.404Z,46.87
2018-10-19T15:34:18.471Z,44.77
2018-10-19T15:36:46.538Z,45.53
2018-10-19T15:39:14.676Z,44.00
2018-10-19T15:41:42.671Z,45.03
2018-10-19T15:44:10.998Z,48.93
2018-10-19T15:46:39.157Z,44.93
2018-10-19T15:49:07.138Z,45.03
2018-10-19T15:51:35.202Z,46.83
2018-10-19T15:54:03.535Z,46.13
2018-10-19T15:56:32.799Z,48.23
2018-10-19T15:59:00.891Z,46.47
2018-10-19T16:01:28.958Z,44.57
2018-10-19T16:03:57.035Z,47.00
2018-10-19T16:06:25.102Z,47.20
2018-10-19T16:08:53.175Z,48.23
2018-10-19T16:11:21.239Z,47.60
2018-10-19T16:13:49.298Z,47.37
2018-10-19T16:16:17.379Z,47.40
2018-10-19T16:18:45.447Z,47.97
2018-10-19T16:21:13.568Z,49.10
2018-10-19T16:23:41.587Z,46.83
2018-10-19T16:26:09.658Z,49.00
2018-10-19T16:28:37.736Z,47.83
2018-10-19T16:31:05.820Z,49.03
2018-10-19T16:33:33.884Z,51.17
2018-10-19T16:36:02.259Z,52.50
2018-10-19T16:38:30.282Z,48.17
2018-10-19T16:40:58.359Z,49.73
2018-10-19T16:43:26.429Z,50.70
2018-10-19T16:45:54.495Z,52.10
2018-10-19T16:48:22.576Z,52.60
2018-10-19T16:50:50.647Z,52.97
2018-10-19T16:53:18.729Z,55.00
2018-10-19T16:55:46.813Z,53.47
2018-10-19T16:58:14.927Z,57.37
2018-10-19T17:00:42.978Z,54.03
2018-10-19T17:03:11.188Z,53.87
2018-10-19T17:05:39.187Z,51.87
2018-10-19T17:08:07.360Z,57.23
2018-10-19T17:10:35.480Z,50.97
2018-10-19T17:13:03.650Z,50.77
2018-10-19T17:15:31.775Z,52.00
2018-10-19T17:18:00.007Z,50.53
2018-10-19T17:20:28.114Z,51.90
2018-10-19T17:22:56.813Z,52.87
2018-10-19T17:25:24.883Z,51.43
2018-10-19T17:27:52.968Z,55.13
2018-10-19T17:30:21.074Z,52.00
2018-10-19T17:32:49.213Z,51.03
2018-10-19T17:35:17.433Z,50.80
2018-10-19T17:37:45.543Z,51.53
2018-10-19T17:40:13.762Z,51.20
2018-10-19T17:42:41.921Z,58.73
2018-10-19T17:45:10.962Z,49.70
2018-10-19T17:47:39.233Z,50.43
2018-10-19T17:50:07.275Z,48.87
2018-10-19T17:52:35.427Z,49.20
2018-10-19T17:55:03.578Z,51.17
2018-10-19T17:57:31.634Z,50.63
2018-10-19T17:59:59.751Z,50.37
2018-10-19T18:02:27.794Z,50.10
2018-10-19T18:04:56.019Z,51.27
2018-10-19T18:07:24.071Z,50.10
2018-10-19T18:09:52.171Z,51.97
2018-10-19T18:12:20.325Z,51.67
2018-10-19T18:14:48.402Z,50.80
2018-10-19T18:17:16.454Z,51.07
2018-10-19T18:19:44.631Z,50.93
2018-10-19T18:22:12.978Z,51.73
2018-10-19T18:24:40.855Z,49.07
2018-10-19T18:27:08.973Z,54.80
2018-10-19T18:29:36.976Z,51.67
2018-10-19T18:32:05.192Z,52.00
2018-10-19T18:34:33.284Z,52.63
2018-10-19T18:37:01.291Z,54.67
2018-10-19T18:39:29.347Z,54.27
2018-10-19T18:41:57.435Z,53.33
2018-10-19T18:44:25.509Z,54.10
2018-10-19T18:46:53.572Z,55.00
2018-10-19T18:49:21.663Z,54.93
2018-10-19T18:51:49.760Z,57.93
2018-10-19T18:54:17.767Z,54.97
2018-10-19T18:56:45.838Z,56.27
2018-10-19T18:59:14.057Z,58.50
2018-10-19T19:01:42.051Z,57.00
2018-10-19T19:04:10.222Z,56.33
2018-10-19T19:06:38.286Z,54.20
2018-10-19T19:09:08.723Z,54.63
2018-10-19T19:11:36.786Z,56.13
2018-10-19T19:14:05.039Z,55.77
2018-10-19T19:16:33.122Z,55.40
2018-10-19T19:19:01.199Z,55.77
2018-10-19T19:21:29.350Z,53.37
2018-10-19T19:24:02.664Z,55.03
2018-10-19T19:26:30.744Z,55.10
2018-10-19T19:28:59.059Z,55.33
2018-10-19T19:31:27.095Z,55.67
2018-10-19T19:34:00.633Z,56.27
2018-10-19T19:36:28.695Z,54.33
2018-10-19T19:38:56.798Z,56.80
2018-10-19T19:41:30.195Z,58.60
2018-10-19T19:43:58.336Z,57.90
2018-10-19T19:46:26.490Z,58.90
2018-10-19T19:49:00.000Z,58.20
2018-10-19T19:51:27.982Z,61.57
2018-10-19T19:53:56.046Z,59.83
2018-10-19T19:56:24.207Z,60.83
2018-10-19T19:58:52.271Z,59.80
2018-10-19T20:01:20.351Z,61.17
2018-10-19T20:03:48.426Z,60.73
2018-10-19T20:06:16.564Z,65.10
2018-10-19T20:08:44.591Z,66.70
2018-10-19T20:11:12.691Z,66.33
2018-10-19T20:13:40.783Z,82.23
2018-10-19T20:16:08.846Z,90.67
2018-10-19T20:18:36.925Z,91.47
2018-10-19T20:21:05.479Z,93.30
2018-10-19T20:23:33.566Z,88.27
2018-10-19T20:26:01.764Z,83.83
2018-10-19T20:28:29.800Z,81.53
2018-10-19T20:30:57.884Z,80.40
2018-10-19T20:33:26.030Z,85.80
2018-10-19T20:35:54.436Z,81.73
2018-10-19T20:38:22.543Z,83.47
2018-10-19T20:40:50.632Z,84.17
2018-10-19T20:43:18.693Z,75.57
2018-10-19T20:45:46.759Z,73.73
2018-10-19T20:48:14.851Z,85.50
2018-10-19T20:50:42.931Z,76.70
2018-10-19T20:53:11.034Z,81.07
2018-10-19T20:55:39.113Z,74.17
2018-10-19T20:58:07.162Z,75.77
2018-10-19T21:00:35.283Z,75.30
2018-10-19T21:03:03.324Z,75.40
2018-10-19T21:05:31.415Z,70.53
2018-10-19T21:07:59.502Z,67.97
2018-10-19T21:10:27.578Z,66.20
2018-10-19T21:12:55.643Z,70.03
2018-10-19T21:15:23.729Z,77.10
2018-10-19T21:17:51.795Z,72.70
2018-10-19T21:20:19.886Z,72.37
2018-10-19T21:22:47.950Z,74.97
2018-10-19T21:25:16.030Z,74.80
2018-10-19T21:27:44.102Z,76.80
2018-10-19T21:30:13.040Z,76.90
2018-10-19T21:32:41.341Z,78.87
2018-10-19T21:35:09.484Z,80.37
2018-10-19T21:37:37.654Z,77.13
2018-10-19T21:40:05.720Z,76.13
2018-10-19T21:42:33.903Z,77.03
2018-10-19T21:45:02.048Z,80.40
2018-10-19T21:47:30.123Z,83.53
2018-10-19T21:49:58.381Z,85.57
2018-10-19T21:52:26.411Z,85.97
2018-10-19T21:54:54.494Z,84.50
2018-10-19T21:57:22.579Z,88.60
2018-10-19T21:59:50.638Z,86.13
2018-10-19T22:02:18.747Z,81.77
2018-10-19T22:04:46.819Z,80.23
2018-10-19T22:07:14.894Z,80.73
2018-10-19T22:09:42.975Z,84.20
2018-10-19T22:12:11.044Z,81.83
2018-10-19T22:14:39.105Z,79.03
2018-10-19T22:17:07.194Z,86.03
2018-10-19T22:19:35.262Z,82.43
2018-10-19T22:22:03.318Z,88.70
2018-10-19T22:24:31.408Z,86.50
2018-10-19T22:26:59.483Z,81.73
2018-10-19T22:29:27.555Z,83.00
2018-10-19T22:31:55.632Z,82.63
2018-10-19T22:34:23.698Z,82.70
2018-10-19T22:36:51.775Z,85.10
2018-10-19T22:39:19.834Z,86.90
2018-10-19T22:41:47.914Z,84.77
2018-10-19T22:44:15.987Z,83.13
2018-10-19T22:46:44.059Z,86.07
2018-10-19T22:49:12.182Z,84.83
2018-10-19T22:51:40.226Z,90.00
2018-10-19T22:54:08.298Z,83.60
2018-10-19T22:56:36.467Z,87.67
2018-10-19T22:59:04.493Z,80.20
2018-10-19T23:01:32.543Z,87.70
2018-10-19T23:04:00.618Z,90.20
2018-10-19T23:06:28.712Z,80.07
2018-10-19T23:08:56.782Z,88.23
2018-10-19T23:11:24.855Z,82.90
2018-10-19T23:13:52.926Z,78.37
2018-10-19T23:16:21.002Z,85.33
2018-10-19T23:18:49.080Z,94.00
2018-10-19T23:21:17.147Z,100.83
2018-10-19T23:23:45.222Z,102.97
2018-10-19T23:26:13.311Z,108.27
2018-10-19T23:28:41.391Z,101.50
2018-10-19T23:31:09.617Z,94.30
2018-10-19T23:33:37.634Z,93.70
2018-10-19T23:36:05.906Z,78.63
2018-10-19T23:38:33.979Z,91.87
2018-10-19T23:41:02.065Z,92.47
2018-10-19T23:43:30.147Z,100.90
2018-10-19T23:45:58.215Z,88.30
2018-10-19T23:48:26.299Z,86.07
2018-10-19T23:50:54.387Z,91.07
2018-10-19T23:53:22.451Z,95.73
2018-10-19T23:55:50.531Z,83.43
2018-10-19T23:58:18.595Z,88.13
